Airport View

Enter AWOS ICAO identifier for current METAR.

ex. KFNL

K2P2 171314Z AUTO 20013G18KT 10SM SCT017 OVC085 03/00 A3002 RMK AO2 T00281001

17 Nov 2019 13:14

Frequency: 118.525

Phone: 920 847 3024

Other Area AWOS: K3D2 - KESC - KMNM - KSUE

TAF KSAW 171139Z 1712/1812 20015G24KT P6SM -SHSN OVC013 FM171900 20009KT 4SM -SHSN VCSH OVC011 FM172100 19008KT 3SM -SHSN OVC009 FM180100 VRB04KT 2SM -SHSN OVC005 FM180300 VRB03KT 1 1/2SM BR OVC004 FM181100 VRB03KT 5SM BR BKN006